createdAt,value
2018-10-03T00:02:09.850Z,8.50
2018-10-03T00:04:45.413Z,8.50
2018-10-03T00:07:21.070Z,8.50
2018-10-03T00:09:56.716Z,8.50
2018-10-03T00:12:32.296Z,8.50
2018-10-03T00:15:07.988Z,8.50
2018-10-03T00:17:43.591Z,8.50
2018-10-03T00:20:14.254Z,8.50
2018-10-03T00:22:44.289Z,8.60
2018-10-03T00:25:14.346Z,8.50
2018-10-03T00:27:44.362Z,8.50
2018-10-03T00:30:14.902Z,8.50
2018-10-03T00:32:44.943Z,8.50
2018-10-03T00:35:15.037Z,8.50
2018-10-03T00:37:45.406Z,8.50
2018-10-03T00:40:15.529Z,8.50
2018-10-03T00:42:45.478Z,8.50
2018-10-03T00:45:15.445Z,8.50
2018-10-03T00:47:45.482Z,8.50
2018-10-03T00:50:15.526Z,8.50
2018-10-03T00:52:45.520Z,8.50
2018-10-03T00:55:16.209Z,8.50
2018-10-03T00:57:46.165Z,8.50
2018-10-03T01:00:16.153Z,8.50
2018-10-03T01:02:46.225Z,8.50
2018-10-03T01:05:16.317Z,8.50
2018-10-03T01:07:46.325Z,8.50
2018-10-03T01:10:16.363Z,8.50
2018-10-03T01:12:46.394Z,8.50
2018-10-03T01:15:17.057Z,8.50
2018-10-03T01:17:47.234Z,8.50
2018-10-03T01:20:17.246Z,8.50
2018-10-03T01:22:47.241Z,8.50
2018-10-03T01:25:17.237Z,8.40
2018-10-03T01:27:47.323Z,8.40
2018-10-03T01:30:17.361Z,8.40
2018-10-03T01:32:47.390Z,8.50
2018-10-03T01:35:17.401Z,8.50
2018-10-03T01:37:47.404Z,8.40
2018-10-03T01:40:17.473Z,8.40
2018-10-03T01:42:48.149Z,8.40
2018-10-03T01:45:18.206Z,8.40
2018-10-03T01:47:48.210Z,8.40
2018-10-03T01:50:18.213Z,8.40
2018-10-03T01:52:48.454Z,8.40
2018-10-03T01:55:18.534Z,8.40
2018-10-03T01:57:49.152Z,8.40
2018-10-03T02:00:19.258Z,8.40
2018-10-03T02:02:49.257Z,8.50
2018-10-03T02:05:19.424Z,8.50
2018-10-03T02:07:49.494Z,8.50
2018-10-03T02:10:19.503Z,8.40
2018-10-03T02:12:49.774Z,8.40
2018-10-03T02:15:19.821Z,8.40
2018-10-03T02:17:49.833Z,8.40
2018-10-03T02:20:19.821Z,8.30
2018-10-03T02:22:50.333Z,8.30
2018-10-03T02:25:20.421Z,8.40
2018-10-03T02:27:50.480Z,8.40
2018-10-03T02:30:20.425Z,8.40
2018-10-03T02:32:50.485Z,8.40
2018-10-03T02:35:20.518Z,8.30
2018-10-03T02:37:50.593Z,8.30
2018-10-03T02:40:20.632Z,8.30
2018-10-03T02:42:50.653Z,8.30
2018-10-03T02:45:21.611Z,8.30
2018-10-03T02:47:52.604Z,8.30
2018-10-03T02:50:22.678Z,8.30
2018-10-03T02:52:52.644Z,8.30
2018-10-03T02:55:22.683Z,8.30
2018-10-03T02:57:52.681Z,8.30
2018-10-03T03:00:23.349Z,8.30
2018-10-03T03:02:53.289Z,8.30
2018-10-03T03:05:23.313Z,8.30
2018-10-03T03:07:53.350Z,8.30
2018-10-03T03:10:23.346Z,8.30
2018-10-03T03:12:54.421Z,8.30
2018-10-03T03:15:24.357Z,8.30
2018-10-03T03:17:54.393Z,8.30
2018-10-03T03:20:24.710Z,8.40
2018-10-03T03:22:54.802Z,8.30
2018-10-03T03:25:24.810Z,8.40
2018-10-03T03:27:54.874Z,8.30
2018-10-03T03:30:24.910Z,8.40
2018-10-03T03:32:55.277Z,8.30
2018-10-03T03:35:25.318Z,8.30
2018-10-03T03:37:55.321Z,8.30
2018-10-03T03:40:25.352Z,8.30
2018-10-03T03:42:56.617Z,8.30
2018-10-03T03:45:26.638Z,8.30
2018-10-03T03:47:56.575Z,8.20
2018-10-03T03:50:26.666Z,8.30
2018-10-03T03:52:57.321Z,8.30
2018-10-03T03:55:27.774Z,8.30
2018-10-03T03:57:57.850Z,8.20
2018-10-03T04:00:27.894Z,8.20
2018-10-03T04:02:57.925Z,8.20
2018-10-03T04:05:27.937Z,8.20
2018-10-03T04:07:58.378Z,8.20
2018-10-03T04:10:28.464Z,8.20
2018-10-03T04:12:58.499Z,8.20
2018-10-03T04:15:28.586Z,8.10
2018-10-03T04:17:58.833Z,8.10
2018-10-03T04:20:28.863Z,8.10
2018-10-03T04:22:58.890Z,8.00
2018-10-03T04:25:28.938Z,8.00
2018-10-03T04:27:59.682Z,8.00
2018-10-03T04:30:30.445Z,8.00
2018-10-03T04:33:00.516Z,8.00
2018-10-03T04:35:30.562Z,8.00
2018-10-03T04:38:00.629Z,7.90
2018-10-03T04:40:31.605Z,8.00
2018-10-03T04:43:03.239Z,8.00
2018-10-03T04:45:34.617Z,8.00
2018-10-03T04:48:04.775Z,8.00
2018-10-03T04:50:34.746Z,7.90
2018-10-03T04:53:04.946Z,7.90
2018-10-03T04:55:35.945Z,7.90
2018-10-03T04:58:07.407Z,7.90
2018-10-03T05:00:37.414Z,7.80
2018-10-03T05:03:07.709Z,7.80
2018-10-03T05:05:37.834Z,7.80
2018-10-03T05:08:07.882Z,7.80
2018-10-03T05:10:37.905Z,7.80
2018-10-03T05:13:08.010Z,7.80
2018-10-03T05:15:38.009Z,7.80
2018-10-03T05:18:08.913Z,7.80
2018-10-03T05:20:39.465Z,7.80
2018-10-03T05:23:10.406Z,7.80
2018-10-03T05:25:41.414Z,7.80
2018-10-03T05:28:11.578Z,7.80
2018-10-03T05:30:41.663Z,7.80
2018-10-03T05:33:11.750Z,7.80
2018-10-03T05:35:42.568Z,7.70
2018-10-03T05:38:12.693Z,7.80
2018-10-03T05:40:42.839Z,7.80
2018-10-03T05:43:12.897Z,7.80
2018-10-03T05:45:43.721Z,7.80
2018-10-03T05:48:13.913Z,7.80
2018-10-03T05:50:44.260Z,7.80
2018-10-03T05:53:14.390Z,7.80
2018-10-03T05:55:44.429Z,7.80
2018-10-03T05:58:14.690Z,7.90
2018-10-03T06:00:44.854Z,7.90
2018-10-03T06:03:15.435Z,7.90
2018-10-03T06:05:46.330Z,7.80
2018-10-03T06:08:17.284Z,7.90
2018-10-03T06:10:47.371Z,7.80
2018-10-03T06:13:17.461Z,7.90
2018-10-03T06:15:48.455Z,7.80
2018-10-03T06:18:18.677Z,7.80
2018-10-03T06:20:48.648Z,7.80
2018-10-03T06:23:18.721Z,7.80
2018-10-03T06:25:50.034Z,7.80
2018-10-03T06:28:20.016Z,7.80
2018-10-03T06:30:50.893Z,7.70
2018-10-03T06:33:21.309Z,7.80
2018-10-03T06:35:53.272Z,7.80
2018-10-03T06:38:24.169Z,7.80
2018-10-03T06:40:54.232Z,7.80
2018-10-03T06:43:24.662Z,7.80
2018-10-03T06:45:54.758Z,7.80
2018-10-03T06:48:25.497Z,7.80
2018-10-03T06:50:56.151Z,7.80
2018-10-03T06:53:26.294Z,7.90
2018-10-03T06:55:56.397Z,7.90
2018-10-03T06:58:27.284Z,7.90
2018-10-03T07:00:57.581Z,7.90
2018-10-03T07:03:27.662Z,7.90
2018-10-03T07:05:57.758Z,7.90
2018-10-03T07:08:27.885Z,8.00
2018-10-03T07:10:58.593Z,8.00
2018-10-03T07:13:28.714Z,8.00
2018-10-03T07:15:59.246Z,8.10
2018-10-03T07:18:29.339Z,8.10
2018-10-03T07:20:59.406Z,8.20
2018-10-03T07:23:29.501Z,8.30
2018-10-03T07:25:59.692Z,8.40
2018-10-03T07:28:31.560Z,8.50
2018-10-03T07:31:01.614Z,8.60
2018-10-03T07:33:32.253Z,8.70
2018-10-03T07:36:02.322Z,8.80
2018-10-03T07:38:33.169Z,8.90
2018-10-03T07:41:03.982Z,9.00
2018-10-03T07:43:35.033Z,9.10
2018-10-03T07:46:05.730Z,9.20
2018-10-03T07:48:36.699Z,9.30
2018-10-03T07:51:06.769Z,9.30
2018-10-03T07:53:37.875Z,9.40
2018-10-03T07:56:07.967Z,9.30
2018-10-03T07:58:38.085Z,9.20
2018-10-03T08:01:08.393Z,9.20
2018-10-03T08:03:39.285Z,9.20
2018-10-03T08:06:09.374Z,9.20
2018-10-03T08:08:40.139Z,9.30
2018-10-03T08:11:11.067Z,9.20
2018-10-03T08:13:41.150Z,9.30
2018-10-03T08:16:11.249Z,9.30
2018-10-03T08:18:42.005Z,9.30
2018-10-03T08:21:13.448Z,9.20
2018-10-03T08:23:44.141Z,9.10
2018-10-03T08:26:15.334Z,9.10
2018-10-03T08:28:46.353Z,9.10
2018-10-03T08:31:16.911Z,9.10
2018-10-03T08:33:47.186Z,9.10
2018-10-03T08:36:17.240Z,9.20
2018-10-03T08:38:47.471Z,9.20
2018-10-03T08:41:18.193Z,9.30
2018-10-03T08:43:48.293Z,9.30
2018-10-03T08:46:19.125Z,9.30
2018-10-03T08:48:49.270Z,9.30
2018-10-03T08:51:20.080Z,9.30
2018-10-03T08:53:51.490Z,9.20
2018-10-03T08:56:21.964Z,9.20
2018-10-03T08:58:52.578Z,9.20
2018-10-03T09:01:23.482Z,9.20
2018-10-03T09:03:53.721Z,9.20
2018-10-03T09:06:23.789Z,9.20
2018-10-03T09:08:54.381Z,9.20
2018-10-03T09:11:24.534Z,9.20
2018-10-03T09:13:54.617Z,9.40
2018-10-03T09:16:24.693Z,9.50
2018-10-03T09:18:56.286Z,9.50
2018-10-03T09:21:27.032Z,9.60
2018-10-03T09:23:58.080Z,9.60
2018-10-03T09:26:28.161Z,9.70
2018-10-03T09:28:58.822Z,9.70
2018-10-03T09:31:29.098Z,9.70
2018-10-03T09:33:59.157Z,9.80
2018-10-03T09:36:29.937Z,9.90
2018-10-03T09:39:00.144Z,10.00
2018-10-03T09:41:31.291Z,10.00
2018-10-03T09:44:02.235Z,10.10
2018-10-03T09:46:32.274Z,10.10
2018-10-03T09:49:02.368Z,10.10
2018-10-03T09:51:33.217Z,10.20
2018-10-03T09:54:03.653Z,10.20
2018-10-03T09:56:33.761Z,10.30
2018-10-03T09:59:04.545Z,10.40
2018-10-03T10:01:35.132Z,10.40
2018-10-03T10:04:05.655Z,10.30
2018-10-03T10:06:35.884Z,10.40
2018-10-03T10:09:08.446Z,10.40
2018-10-03T10:11:38.640Z,10.40
2018-10-03T10:14:09.022Z,10.40
2018-10-03T10:16:39.090Z,10.50
2018-10-03T10:19:09.641Z,10.60
2018-10-03T10:21:39.717Z,10.70
2018-10-03T10:24:10.482Z,10.70
2018-10-03T10:26:40.782Z,10.80
2018-10-03T10:29:10.972Z,10.80
2018-10-03T10:31:42.401Z,10.90
2018-10-03T10:34:12.466Z,11.00
2018-10-03T10:36:43.120Z,11.00
2018-10-03T10:39:13.862Z,11.10
2018-10-03T10:41:45.382Z,11.20
2018-10-03T10:44:16.125Z,11.30
2018-10-03T10:46:46.294Z,11.10
2018-10-03T10:49:16.680Z,11.10
2018-10-03T10:51:47.473Z,10.90
2018-10-03T10:54:17.561Z,10.80
2018-10-03T10:56:47.650Z,10.80
2018-10-03T10:59:18.505Z,10.70
2018-10-03T11:01:48.585Z,10.70
2018-10-03T11:04:19.349Z,10.70
2018-10-03T11:06:49.444Z,10.60
2018-10-03T11:09:20.238Z,10.60
2018-10-03T11:11:50.413Z,10.50
2018-10-03T11:14:20.549Z,10.80
2018-10-03T11:16:50.648Z,11.00
2018-10-03T11:19:20.785Z,11.10
2018-10-03T11:21:51.434Z,11.30
2018-10-03T11:24:21.674Z,11.50
2018-10-03T11:26:51.685Z,11.40
2018-10-03T11:29:21.817Z,11.70
2018-10-03T11:31:52.339Z,12.10
2018-10-03T11:34:22.434Z,12.40
2018-10-03T11:36:52.488Z,12.50
2018-10-03T11:39:22.535Z,12.90
2018-10-03T11:41:52.621Z,13.20
2018-10-03T11:44:22.722Z,13.40
2018-10-03T11:46:52.881Z,13.30
2018-10-03T11:49:23.105Z,13.30
2018-10-03T11:51:53.196Z,13.70
2018-10-03T11:54:23.277Z,13.70
2018-10-03T11:56:54.108Z,13.60
2018-10-03T11:59:24.792Z,13.40
2018-10-03T12:01:54.871Z,13.50
2018-10-03T12:04:25.734Z,13.70
2018-10-03T12:06:56.417Z,14.10
2018-10-03T12:09:26.610Z,14.20
2018-10-03T12:11:56.650Z,14.40
2018-10-03T12:14:27.633Z,14.30
2018-10-03T12:16:58.240Z,14.10
2018-10-03T12:19:28.643Z,13.70
2018-10-03T12:21:58.834Z,13.30
2018-10-03T12:24:28.925Z,13.00
2018-10-03T12:26:59.025Z,12.60
2018-10-03T12:29:29.105Z,12.30
2018-10-03T12:31:59.218Z,12.30
2018-10-03T12:34:29.884Z,12.40
2018-10-03T12:37:00.533Z,12.50
2018-10-03T12:39:31.956Z,12.40
2018-10-03T12:42:02.153Z,12.30
2018-10-03T12:44:32.235Z,12.20
2018-10-03T12:47:02.491Z,12.20
2018-10-03T12:49:34.345Z,12.30
2018-10-03T12:52:04.458Z,12.50
2018-10-03T12:54:34.577Z,12.50
2018-10-03T12:57:04.670Z,12.70
2018-10-03T12:59:35.890Z,12.80
2018-10-03T13:02:07.302Z,12.80
2018-10-03T13:04:37.904Z,12.90
2018-10-03T13:07:08.713Z,12.70
2018-10-03T13:09:39.352Z,12.60
2018-10-03T13:12:09.917Z,12.70
2018-10-03T13:14:40.051Z,12.60
2018-10-03T13:17:10.157Z,12.80
2018-10-03T13:19:40.295Z,12.80
2018-10-03T13:22:10.361Z,13.00
2018-10-03T13:24:41.102Z,13.10
2018-10-03T13:27:11.889Z,13.00
2018-10-03T13:29:42.042Z,13.00
2018-10-03T13:32:12.369Z,13.10
2018-10-03T13:34:43.042Z,12.90
2018-10-03T13:37:13.157Z,12.50
2018-10-03T13:39:43.970Z,12.40
2018-10-03T13:42:14.022Z,12.10
2018-10-03T13:44:44.671Z,11.80
2018-10-03T13:47:15.381Z,11.60
2018-10-03T13:49:45.445Z,11.40
2018-10-03T13:52:15.925Z,11.30
2018-10-03T13:54:46.482Z,11.00
2018-10-03T13:57:16.836Z,11.10
2018-10-03T13:59:46.945Z,11.20
2018-10-03T14:02:17.082Z,11.30
2018-10-03T14:04:47.726Z,11.20
2018-10-03T14:07:17.833Z,11.00
2018-10-03T14:09:48.930Z,10.90
2018-10-03T14:12:20.002Z,10.90
2018-10-03T14:14:50.534Z,10.80
2018-10-03T14:17:20.626Z,10.80
2018-10-03T14:19:50.852Z,10.70
2018-10-03T14:22:20.938Z,10.70
2018-10-03T14:24:51.109Z,10.70
2018-10-03T14:27:21.261Z,10.70
2018-10-03T14:29:51.427Z,10.60
2018-10-03T14:32:22.359Z,10.60
2018-10-03T14:34:53.041Z,10.50
2018-10-03T14:37:23.107Z,10.50
2018-10-03T14:39:53.265Z,10.50
2018-10-03T14:42:23.290Z,10.50
2018-10-03T14:44:53.394Z,10.50
2018-10-03T14:47:23.463Z,10.50
2018-10-03T14:49:53.565Z,10.40
2018-10-03T14:52:23.664Z,10.40
2018-10-03T14:54:54.725Z,10.30
2018-10-03T14:57:24.792Z,10.30
2018-10-03T14:59:54.837Z,10.20
2018-10-03T15:02:24.933Z,10.20
2018-10-03T15:04:54.983Z,10.20
2018-10-03T15:07:25.030Z,10.10
2018-10-03T15:09:55.204Z,10.10
2018-10-03T15:12:25.298Z,10.00
2018-10-03T15:14:55.532Z,10.00
2018-10-03T15:17:25.613Z,9.90
2018-10-03T15:19:55.658Z,9.90
2018-10-03T15:22:25.770Z,9.80
2018-10-03T15:24:55.818Z,9.80
2018-10-03T15:27:25.874Z,9.80
2018-10-03T15:29:58.005Z,9.70
2018-10-03T15:32:27.938Z,9.70
2018-10-03T15:34:58.413Z,9.60
2018-10-03T15:37:28.525Z,9.60
2018-10-03T15:39:58.573Z,9.60
2018-10-03T15:42:28.618Z,9.50
2018-10-03T15:44:58.645Z,9.50
2018-10-03T15:47:28.706Z,9.50
2018-10-03T15:49:58.776Z,9.50
2018-10-03T15:52:29.782Z,9.40
2018-10-03T15:55:00.356Z,9.40
2018-10-03T15:57:30.657Z,9.30
2018-10-03T16:00:00.761Z,9.20
2018-10-03T16:02:31.938Z,9.20
2018-10-03T16:05:02.353Z,9.10
2018-10-03T16:07:32.851Z,9.10
2018-10-03T16:10:03.003Z,9.00
2018-10-03T16:12:33.050Z,8.90
2018-10-03T16:15:03.136Z,8.90
2018-10-03T16:17:33.193Z,8.90
2018-10-03T16:20:03.301Z,8.80
2018-10-03T16:22:33.366Z,8.80
2018-10-03T16:25:03.471Z,8.70
2018-10-03T16:27:33.575Z,8.70
2018-10-03T16:30:03.723Z,8.60
2018-10-03T16:32:33.922Z,8.60
2018-10-03T16:35:03.906Z,8.60
2018-10-03T16:37:34.018Z,8.50
2018-10-03T16:40:04.885Z,8.50
2018-10-03T16:42:34.937Z,8.50
2018-10-03T16:45:05.603Z,8.50
2018-10-03T16:47:35.605Z,8.40
2018-10-03T16:50:05.906Z,8.40
2018-10-03T16:52:35.910Z,8.40
2018-10-03T16:55:06.018Z,8.30
2018-10-03T16:57:36.537Z,8.20
2018-10-03T17:00:07.264Z,8.10
2018-10-03T17:02:38.422Z,8.10
2018-10-03T17:05:08.646Z,8.00
2018-10-03T17:07:38.608Z,8.00
2018-10-03T17:10:08.805Z,7.90
2018-10-03T17:12:38.852Z,7.80
2018-10-03T17:15:08.898Z,7.80
2018-10-03T17:17:39.199Z,7.70
2018-10-03T17:20:09.437Z,7.70
2018-10-03T17:22:39.739Z,7.60
2018-10-03T17:25:09.753Z,7.60
2018-10-03T17:27:39.872Z,7.50
2018-10-03T17:30:09.865Z,7.40
2018-10-03T17:32:40.062Z,7.40
2018-10-03T17:35:10.118Z,7.40
2018-10-03T17:37:40.258Z,7.30
2018-10-03T17:40:10.373Z,7.30
2018-10-03T17:42:40.893Z,7.20
2018-10-03T17:45:10.918Z,7.10
2018-10-03T17:47:41.889Z,7.10
2018-10-03T17:50:11.906Z,7.10
2018-10-03T17:52:41.987Z,7.00
2018-10-03T17:55:12.121Z,7.00
2018-10-03T17:57:42.150Z,7.00
2018-10-03T18:00:12.315Z,7.10
2018-10-03T18:02:42.408Z,7.10
2018-10-03T18:05:12.480Z,7.10
2018-10-03T18:07:42.871Z,7.00
2018-10-03T18:10:13.045Z,7.10
2018-10-03T18:12:43.069Z,7.00
2018-10-03T18:15:13.144Z,7.00
2018-10-03T18:17:43.151Z,7.00
2018-10-03T18:20:13.284Z,7.00
2018-10-03T18:22:43.285Z,7.00
2018-10-03T18:25:13.541Z,7.00
2018-10-03T18:27:43.635Z,6.90
2018-10-03T18:30:13.678Z,6.80
2018-10-03T18:32:43.702Z,6.80
2018-10-03T18:35:13.810Z,6.80
2018-10-03T18:37:43.813Z,6.70
2018-10-03T18:40:13.893Z,6.70
2018-10-03T18:42:43.939Z,6.60
2018-10-03T18:45:14.029Z,6.60
2018-10-03T18:47:44.017Z,6.50
2018-10-03T18:50:14.073Z,6.50
2018-10-03T18:52:44.074Z,6.50
2018-10-03T18:55:14.273Z,6.50
2018-10-03T18:57:44.218Z,6.40
2018-10-03T19:00:14.846Z,6.40
2018-10-03T19:02:44.865Z,6.30
2018-10-03T19:05:14.909Z,6.30
2018-10-03T19:07:44.966Z,6.30
2018-10-03T19:10:15.106Z,6.30
2018-10-03T19:12:45.185Z,6.20
2018-10-03T19:15:15.260Z,6.20
2018-10-03T19:17:45.217Z,6.10
2018-10-03T19:20:15.386Z,6.10
2018-10-03T19:22:45.282Z,6.10
2018-10-03T19:25:15.439Z,6.00
2018-10-03T19:27:45.923Z,6.10
2018-10-03T19:30:16.004Z,6.00
2018-10-03T19:32:46.027Z,5.90
2018-10-03T19:35:16.093Z,5.90
2018-10-03T19:37:46.125Z,5.80
2018-10-03T19:40:16.215Z,5.80
2018-10-03T19:42:46.261Z,5.80
2018-10-03T19:45:16.377Z,5.80
2018-10-03T19:47:46.480Z,5.80
2018-10-03T19:50:16.541Z,5.70
2018-10-03T19:52:46.573Z,5.70
2018-10-03T19:55:16.602Z,5.60
2018-10-03T19:57:46.610Z,5.60
2018-10-03T20:00:16.637Z,5.60
2018-10-03T20:02:46.729Z,5.60
2018-10-03T20:05:17.237Z,5.50
2018-10-03T20:07:47.895Z,5.50
2018-10-03T20:10:18.082Z,5.50
2018-10-03T20:12:48.147Z,5.40
2018-10-03T20:15:18.173Z,5.40
2018-10-03T20:17:48.213Z,5.40
2018-10-03T20:20:18.249Z,5.30
2018-10-03T20:22:48.298Z,5.20
2018-10-03T20:25:18.822Z,5.30
2018-10-03T20:27:48.901Z,5.30
2018-10-03T20:30:18.949Z,5.20
2018-10-03T20:32:48.985Z,5.20
2018-10-03T20:35:19.477Z,5.10
2018-10-03T20:37:49.498Z,5.10
2018-10-03T20:40:19.524Z,5.10
2018-10-03T20:42:49.560Z,5.10
2018-10-03T20:45:19.579Z,5.10
2018-10-03T20:47:50.630Z,5.00
2018-10-03T20:50:20.661Z,5.00
2018-10-03T20:52:51.326Z,5.00
2018-10-03T20:55:21.381Z,5.00
2018-10-03T20:57:51.406Z,5.00
2018-10-03T21:00:21.513Z,5.10
2018-10-03T21:02:51.569Z,5.10
2018-10-03T21:05:22.405Z,5.10
2018-10-03T21:07:52.346Z,5.10
2018-10-03T21:10:22.390Z,5.10
2018-10-03T21:12:52.426Z,5.10
2018-10-03T21:15:22.433Z,5.20
2018-10-03T21:17:52.499Z,5.20
2018-10-03T21:20:22.504Z,5.30
2018-10-03T21:22:52.614Z,5.30
2018-10-03T21:25:22.610Z,5.30
2018-10-03T21:27:52.670Z,5.40
2018-10-03T21:30:22.729Z,5.50
2018-10-03T21:32:52.794Z,5.50
2018-10-03T21:35:22.777Z,5.60
2018-10-03T21:37:52.801Z,5.70
2018-10-03T21:40:22.845Z,5.70
2018-10-03T21:42:52.861Z,5.70
2018-10-03T21:45:22.885Z,5.80
2018-10-03T21:47:52.889Z,5.70
2018-10-03T21:50:22.950Z,5.70
2018-10-03T21:52:53.003Z,5.70
2018-10-03T21:55:23.021Z,5.70
2018-10-03T21:57:53.077Z,5.60
2018-10-03T22:00:27.333Z,5.60
2018-10-03T22:02:57.358Z,5.60
2018-10-03T22:05:27.402Z,5.60
2018-10-03T22:07:57.439Z,5.50
2018-10-03T22:10:27.497Z,5.50
2018-10-03T22:12:57.517Z,5.60
2018-10-03T22:15:27.551Z,5.50
2018-10-03T22:17:57.581Z,5.50
2018-10-03T22:20:27.609Z,5.50
2018-10-03T22:22:57.660Z,5.40
2018-10-03T22:25:27.640Z,5.40
2018-10-03T22:27:57.681Z,5.40
2018-10-03T22:30:27.705Z,5.30
2018-10-03T22:32:57.737Z,5.20
2018-10-03T22:35:27.780Z,5.20
2018-10-03T22:37:57.829Z,5.00
2018-10-03T22:40:27.906Z,5.10
2018-10-03T22:42:57.909Z,5.00
2018-10-03T22:45:27.982Z,4.90
2018-10-03T22:47:58.453Z,4.80
2018-10-03T22:50:28.497Z,4.80
2018-10-03T22:52:58.497Z,4.80
2018-10-03T22:55:28.549Z,4.70
2018-10-03T22:57:58.677Z,4.70
2018-10-03T23:00:28.726Z,4.70
2018-10-03T23:02:58.745Z,4.80
2018-10-03T23:05:28.810Z,4.80
2018-10-03T23:07:58.813Z,4.80
2018-10-03T23:10:28.849Z,4.90
2018-10-03T23:12:58.889Z,4.90
2018-10-03T23:15:28.918Z,4.90
2018-10-03T23:17:58.955Z,4.90
2018-10-03T23:20:28.989Z,4.90
2018-10-03T23:22:59.053Z,4.90
2018-10-03T23:25:29.077Z,4.90
2018-10-03T23:27:59.161Z,4.90
2018-10-03T23:30:29.182Z,4.90
2018-10-03T23:32:59.219Z,4.80
2018-10-03T23:35:29.277Z,4.70
2018-10-03T23:37:59.613Z,4.70
2018-10-03T23:40:29.621Z,4.70
2018-10-03T23:42:59.662Z,4.70
2018-10-03T23:45:29.581Z,4.60
2018-10-03T23:47:59.658Z,4.60
2018-10-03T23:50:29.678Z,4.60
2018-10-03T23:52:59.713Z,4.60
2018-10-03T23:55:29.761Z,4.60
2018-10-03T23:57:59.824Z,4.60
